sensor_id;sensor_type;location;lat;lon;timestamp;P1;durP1;ratioP1;P2;durP2;ratioP2
56718;SDS011;42597;40.636;0.278;2022-10-14T00:02:14;4.38;;;2.47;;
56718;SDS011;42597;40.636;0.278;2022-10-14T00:04:40;3.80;;;2.53;;
56718;SDS011;42597;40.636;0.278;2022-10-14T00:07:06;5.20;;;3.03;;
56718;SDS011;42597;40.636;0.278;2022-10-14T00:09:31;4.53;;;2.67;;
56718;SDS011;42597;40.636;0.278;2022-10-14T00:11:57;4.50;;;2.92;;
56718;SDS011;42597;40.636;0.278;2022-10-14T00:14:22;3.90;;;2.00;;
56718;SDS011;42597;40.636;0.278;2022-10-14T00:16:51;5.35;;;2.28;;
56718;SDS011;42597;40.636;0.278;2022-10-14T00:19:18;6.05;;;2.65;;
56718;SDS011;42597;40.636;0.278;2022-10-14T00:21:44;5.53;;;2.83;;
56718;SDS011;42597;40.636;0.278;2022-10-14T00:24:11;4.50;;;2.53;;
56718;SDS011;42597;40.636;0.278;2022-10-14T00:26:38;5.57;;;3.22;;
56718;SDS011;42597;40.636;0.278;2022-10-14T00:29:06;5.63;;;2.42;;
56718;SDS011;42597;40.636;0.278;2022-10-14T00:31:34;4.28;;;2.38;;
56718;SDS011;42597;40.636;0.278;2022-10-14T00:33:59;12.02;;;2.88;;
56718;SDS011;42597;40.636;0.278;2022-10-14T00:36:25;4.68;;;2.65;;
56718;SDS011;42597;40.636;0.278;2022-10-14T00:38:51;4.45;;;2.65;;
56718;SDS011;42597;40.636;0.278;2022-10-14T00:43:57;4.60;;;2.63;;
56718;SDS011;42597;40.636;0.278;2022-10-14T00:46:36;4.50;;;2.75;;
56718;SDS011;42597;40.636;0.278;2022-10-14T00:49:08;5.10;;;2.20;;
56718;SDS011;42597;40.636;0.278;2022-10-14T00:51:38;2.83;;;1.95;;
56718;SDS011;42597;40.636;0.278;2022-10-14T00:54:05;6.72;;;2.63;;
56718;SDS011;42597;40.636;0.278;2022-10-14T00:56:32;4.93;;;2.70;;
56718;SDS011;42597;40.636;0.278;2022-10-14T00:59:00;5.18;;;2.10;;
56718;SDS011;42597;40.636;0.278;2022-10-14T01:01:28;4.30;;;2.42;;
56718;SDS011;42597;40.636;0.278;2022-10-14T01:03:54;3.40;;;2.05;;
56718;SDS011;42597;40.636;0.278;2022-10-14T01:09:35;3.88;;;1.85;;
56718;SDS011;42597;40.636;0.278;2022-10-14T01:26:01;4.35;;;2.40;;
56718;SDS011;42597;40.636;0.278;2022-10-14T01:31:14;4.80;;;2.42;;
56718;SDS011;42597;40.636;0.278;2022-10-14T01:33:44;4.55;;;2.03;;
56718;SDS011;42597;40.636;0.278;2022-10-14T01:36:16;4.28;;;2.78;;
56718;SDS011;42597;40.636;0.278;2022-10-14T01:41:24;4.45;;;2.35;;
56718;SDS011;42597;40.636;0.278;2022-10-14T01:43:54;5.75;;;2.42;;
56718;SDS011;42597;40.636;0.278;2022-10-14T01:46:24;4.75;;;2.30;;
56718;SDS011;42597;40.636;0.278;2022-10-14T01:51:21;6.55;;;2.13;;
56718;SDS011;42597;40.636;0.278;2022-10-14T01:53:53;4.80;;;2.72;;
56718;SDS011;42597;40.636;0.278;2022-10-14T01:56:24;4.22;;;2.65;;
56718;SDS011;42597;40.636;0.278;2022-10-14T01:58:54;4.55;;;2.20;;
56718;SDS011;42597;40.636;0.278;2022-10-14T02:01:22;4.80;;;2.30;;
56718;SDS011;42597;40.636;0.278;2022-10-14T02:03:48;7.32;;;2.20;;
56718;SDS011;42597;40.636;0.278;2022-10-14T02:06:16;6.03;;;2.50;;
56718;SDS011;42597;40.636;0.278;2022-10-14T02:11:28;6.25;;;2.45;;
56718;SDS011;42597;40.636;0.278;2022-10-14T02:25:02;3.83;;;2.13;;
56718;SDS011;42597;40.636;0.278;2022-10-14T02:27:34;3.00;;;1.73;;
56718;SDS011;42597;40.636;0.278;2022-10-14T02:30:01;3.58;;;2.13;;
56718;SDS011;42597;40.636;0.278;2022-10-14T02:32:28;5.82;;;2.80;;
56718;SDS011;42597;40.636;0.278;2022-10-14T02:34:57;3.28;;;2.00;;
56718;SDS011;42597;40.636;0.278;2022-10-14T02:37:24;5.00;;;2.40;;
56718;SDS011;42597;40.636;0.278;2022-10-14T02:39:56;5.28;;;1.95;;
56718;SDS011;42597;40.636;0.278;2022-10-14T02:42:31;6.55;;;1.92;;
56718;SDS011;42597;40.636;0.278;2022-10-14T02:44:57;4.93;;;1.95;;
56718;SDS011;42597;40.636;0.278;2022-10-14T02:47:24;3.72;;;2.40;;
56718;SDS011;42597;40.636;0.278;2022-10-14T02:49:50;3.30;;;1.90;;
56718;SDS011;42597;40.636;0.278;2022-10-14T02:52:16;2.65;;;1.73;;
56718;SDS011;42597;40.636;0.278;2022-10-14T02:54:42;5.38;;;2.80;;
56718;SDS011;42597;40.636;0.278;2022-10-14T02:57:08;6.93;;;2.67;;
56718;SDS011;42597;40.636;0.278;2022-10-14T02:59:34;3.80;;;2.35;;
56718;SDS011;42597;40.636;0.278;2022-10-14T03:01:59;6.07;;;2.45;;
56718;SDS011;42597;40.636;0.278;2022-10-14T03:04:25;6.70;;;2.58;;
56718;SDS011;42597;40.636;0.278;2022-10-14T03:06:51;4.07;;;2.13;;
56718;SDS011;42597;40.636;0.278;2022-10-14T03:09:18;5.13;;;2.22;;
56718;SDS011;42597;40.636;0.278;2022-10-14T03:11:44;5.78;;;2.97;;
56718;SDS011;42597;40.636;0.278;2022-10-14T03:14:09;2.88;;;1.88;;
56718;SDS011;42597;40.636;0.278;2022-10-14T03:16:35;4.65;;;2.00;;
56718;SDS011;42597;40.636;0.278;2022-10-14T03:19:01;3.35;;;1.98;;
56718;SDS011;42597;40.636;0.278;2022-10-14T03:21:26;2.30;;;1.67;;
56718;SDS011;42597;40.636;0.278;2022-10-14T03:23:52;4.63;;;2.28;;
56718;SDS011;42597;40.636;0.278;2022-10-14T03:26:18;6.05;;;2.28;;
56718;SDS011;42597;40.636;0.278;2022-10-14T03:28:44;5.45;;;2.25;;
56718;SDS011;42597;40.636;0.278;2022-10-14T03:31:09;14.60;;;2.67;;
56718;SDS011;42597;40.636;0.278;2022-10-14T03:33:35;4.47;;;2.42;;
56718;SDS011;42597;40.636;0.278;2022-10-14T03:36:01;6.03;;;2.08;;
56718;SDS011;42597;40.636;0.278;2022-10-14T03:38:27;4.63;;;2.15;;
56718;SDS011;42597;40.636;0.278;2022-10-14T03:40:52;4.72;;;2.42;;
56718;SDS011;42597;40.636;0.278;2022-10-14T03:43:18;7.72;;;2.72;;
56718;SDS011;42597;40.636;0.278;2022-10-14T03:45:44;7.60;;;2.95;;
56718;SDS011;42597;40.636;0.278;2022-10-14T03:48:10;4.30;;;2.38;;
56718;SDS011;42597;40.636;0.278;2022-10-14T03:50:36;5.63;;;2.42;;
56718;SDS011;42597;40.636;0.278;2022-10-14T03:53:01;3.85;;;1.50;;
56718;SDS011;42597;40.636;0.278;2022-10-14T03:55:27;4.43;;;2.15;;
56718;SDS011;42597;40.636;0.278;2022-10-14T03:57:53;4.25;;;2.25;;
56718;SDS011;42597;40.636;0.278;2022-10-14T04:00:20;4.90;;;2.53;;
56718;SDS011;42597;40.636;0.278;2022-10-14T04:02:46;6.00;;;2.28;;
56718;SDS011;42597;40.636;0.278;2022-10-14T04:05:11;4.60;;;2.30;;
56718;SDS011;42597;40.636;0.278;2022-10-14T04:07:37;4.93;;;2.40;;
56718;SDS011;42597;40.636;0.278;2022-10-14T04:10:02;4.45;;;2.35;;
56718;SDS011;42597;40.636;0.278;2022-10-14T04:12:28;5.07;;;2.13;;
56718;SDS011;42597;40.636;0.278;2022-10-14T04:14:54;6.15;;;2.25;;
56718;SDS011;42597;40.636;0.278;2022-10-14T04:17:21;6.47;;;2.42;;
56718;SDS011;42597;40.636;0.278;2022-10-14T04:19:50;6.00;;;2.47;;
56718;SDS011;42597;40.636;0.278;2022-10-14T04:22:16;4.82;;;2.05;;
56718;SDS011;42597;40.636;0.278;2022-10-14T04:24:43;6.07;;;2.30;;
56718;SDS011;42597;40.636;0.278;2022-10-14T04:27:09;5.18;;;2.72;;
56718;SDS011;42597;40.636;0.278;2022-10-14T04:29:34;6.72;;;2.30;;
56718;SDS011;42597;40.636;0.278;2022-10-14T04:32:00;7.28;;;2.70;;
56718;SDS011;42597;40.636;0.278;2022-10-14T04:34:26;5.28;;;1.88;;
56718;SDS011;42597;40.636;0.278;2022-10-14T04:36:51;5.03;;;2.00;;
56718;SDS011;42597;40.636;0.278;2022-10-14T04:39:17;4.07;;;2.22;;
56718;SDS011;42597;40.636;0.278;2022-10-14T04:41:43;3.30;;;1.90;;
56718;SDS011;42597;40.636;0.278;2022-10-14T04:44:09;4.03;;;2.25;;
56718;SDS011;42597;40.636;0.278;2022-10-14T04:46:34;6.38;;;2.80;;
56718;SDS011;42597;40.636;0.278;2022-10-14T04:49:00;4.20;;;2.05;;
56718;SDS011;42597;40.636;0.278;2022-10-14T04:51:25;4.18;;;2.08;;
56718;SDS011;42597;40.636;0.278;2022-10-14T04:53:51;5.43;;;2.53;;
56718;SDS011;42597;40.636;0.278;2022-10-14T04:56:16;5.20;;;2.80;;
56718;SDS011;42597;40.636;0.278;2022-10-14T04:58:42;9.65;;;2.85;;
56718;SDS011;42597;40.636;0.278;2022-10-14T05:01:07;8.35;;;3.15;;
56718;SDS011;42597;40.636;0.278;2022-10-14T05:03:33;4.07;;;2.30;;
56718;SDS011;42597;40.636;0.278;2022-10-14T05:05:58;5.82;;;2.53;;
56718;SDS011;42597;40.636;0.278;2022-10-14T05:08:24;4.63;;;2.25;;
56718;SDS011;42597;40.636;0.278;2022-10-14T05:10:50;6.10;;;2.47;;
56718;SDS011;42597;40.636;0.278;2022-10-14T05:13:16;4.05;;;2.38;;
56718;SDS011;42597;40.636;0.278;2022-10-14T05:15:41;6.22;;;1.65;;
56718;SDS011;42597;40.636;0.278;2022-10-14T05:18:09;5.07;;;2.00;;
56718;SDS011;42597;40.636;0.278;2022-10-14T05:20:35;4.50;;;2.20;;
56718;SDS011;42597;40.636;0.278;2022-10-14T05:23:02;3.78;;;1.98;;
56718;SDS011;42597;40.636;0.278;2022-10-14T05:25:29;3.30;;;1.58;;
56718;SDS011;42597;40.636;0.278;2022-10-14T05:27:54;3.80;;;2.22;;
56718;SDS011;42597;40.636;0.278;2022-10-14T05:30:20;3.55;;;1.77;;
56718;SDS011;42597;40.636;0.278;2022-10-14T05:32:46;8.73;;;2.50;;
56718;SDS011;42597;40.636;0.278;2022-10-14T05:35:11;6.15;;;2.72;;
56718;SDS011;42597;40.636;0.278;2022-10-14T05:37:37;7.78;;;2.65;;
56718;SDS011;42597;40.636;0.278;2022-10-14T05:40:02;5.65;;;2.83;;
56718;SDS011;42597;40.636;0.278;2022-10-14T05:42:28;4.88;;;2.40;;
56718;SDS011;42597;40.636;0.278;2022-10-14T05:44:54;3.92;;;2.22;;
56718;SDS011;42597;40.636;0.278;2022-10-14T05:47:19;4.35;;;1.90;;
56718;SDS011;42597;40.636;0.278;2022-10-14T05:49:45;5.35;;;2.17;;
56718;SDS011;42597;40.636;0.278;2022-10-14T05:52:10;5.10;;;1.77;;
56718;SDS011;42597;40.636;0.278;2022-10-14T05:54:36;7.35;;;3.15;;
56718;SDS011;42597;40.636;0.278;2022-10-14T05:57:01;9.13;;;2.78;;
56718;SDS011;42597;40.636;0.278;2022-10-14T05:59:27;3.85;;;2.25;;
56718;SDS011;42597;40.636;0.278;2022-10-14T06:01:54;4.97;;;2.08;;
56718;SDS011;42597;40.636;0.278;2022-10-14T06:04:21;4.07;;;2.22;;
56718;SDS011;42597;40.636;0.278;2022-10-14T06:06:47;7.57;;;2.47;;
56718;SDS011;42597;40.636;0.278;2022-10-14T06:09:12;2.70;;;1.88;;
56718;SDS011;42597;40.636;0.278;2022-10-14T06:11:38;3.20;;;1.40;;
56718;SDS011;42597;40.636;0.278;2022-10-14T06:14:04;3.45;;;2.05;;
56718;SDS011;42597;40.636;0.278;2022-10-14T06:16:30;4.03;;;2.20;;
56718;SDS011;42597;40.636;0.278;2022-10-14T06:18:55;11.27;;;2.33;;
56718;SDS011;42597;40.636;0.278;2022-10-14T06:21:21;6.28;;;2.55;;
56718;SDS011;42597;40.636;0.278;2022-10-14T06:23:46;9.73;;;3.17;;
56718;SDS011;42597;40.636;0.278;2022-10-14T06:26:12;7.97;;;1.85;;
56718;SDS011;42597;40.636;0.278;2022-10-14T06:28:37;6.65;;;1.90;;
56718;SDS011;42597;40.636;0.278;2022-10-14T06:31:03;5.93;;;2.30;;
56718;SDS011;42597;40.636;0.278;2022-10-14T06:33:29;6.25;;;2.88;;
56718;SDS011;42597;40.636;0.278;2022-10-14T06:35:55;6.75;;;2.72;;
56718;SDS011;42597;40.636;0.278;2022-10-14T06:38:21;4.93;;;2.70;;
56718;SDS011;42597;40.636;0.278;2022-10-14T06:40:50;5.55;;;2.47;;
56718;SDS011;42597;40.636;0.278;2022-10-14T06:43:16;5.25;;;2.25;;
56718;SDS011;42597;40.636;0.278;2022-10-14T06:45:42;6.10;;;2.35;;
56718;SDS011;42597;40.636;0.278;2022-10-14T06:48:08;4.47;;;2.30;;
56718;SDS011;42597;40.636;0.278;2022-10-14T06:50:33;3.83;;;2.38;;
56718;SDS011;42597;40.636;0.278;2022-10-14T06:52:59;7.03;;;3.13;;
56718;SDS011;42597;40.636;0.278;2022-10-14T06:55:24;4.30;;;1.70;;
56718;SDS011;42597;40.636;0.278;2022-10-14T06:57:50;4.50;;;2.25;;
56718;SDS011;42597;40.636;0.278;2022-10-14T07:00:15;5.57;;;3.03;;
56718;SDS011;42597;40.636;0.278;2022-10-14T07:02:41;6.40;;;2.83;;
56718;SDS011;42597;40.636;0.278;2022-10-14T07:05:08;7.15;;;3.25;;
56718;SDS011;42597;40.636;0.278;2022-10-14T07:07:34;6.32;;;2.50;;
56718;SDS011;42597;40.636;0.278;2022-10-14T07:09:59;6.55;;;2.97;;
56718;SDS011;42597;40.636;0.278;2022-10-14T07:12:25;9.38;;;5.93;;
56718;SDS011;42597;40.636;0.278;2022-10-14T07:14:51;10.73;;;4.40;;
56718;SDS011;42597;40.636;0.278;2022-10-14T07:17:16;4.78;;;2.92;;
56718;SDS011;42597;40.636;0.278;2022-10-14T07:19:42;6.25;;;2.75;;
56718;SDS011;42597;40.636;0.278;2022-10-14T07:22:08;6.28;;;2.58;;
56718;SDS011;42597;40.636;0.278;2022-10-14T07:24:33;6.32;;;2.85;;
56718;SDS011;42597;40.636;0.278;2022-10-14T07:26:59;5.13;;;2.35;;
56718;SDS011;42597;40.636;0.278;2022-10-14T07:29:25;3.33;;;2.28;;
56718;SDS011;42597;40.636;0.278;2022-10-14T07:31:52;5.40;;;2.22;;
56718;SDS011;42597;40.636;0.278;2022-10-14T07:34:17;4.53;;;2.08;;
56718;SDS011;42597;40.636;0.278;2022-10-14T07:36:43;6.60;;;2.60;;
56718;SDS011;42597;40.636;0.278;2022-10-14T07:39:08;3.80;;;2.20;;
56718;SDS011;42597;40.636;0.278;2022-10-14T07:41:34;5.00;;;2.20;;
56718;SDS011;42597;40.636;0.278;2022-10-14T07:44:00;4.07;;;1.88;;
56718;SDS011;42597;40.636;0.278;2022-10-14T07:46:30;4.00;;;2.65;;
56718;SDS011;42597;40.636;0.278;2022-10-14T07:49:07;6.60;;;3.85;;
56718;SDS011;42597;40.636;0.278;2022-10-14T07:51:35;8.43;;;4.97;;
56718;SDS011;42597;40.636;0.278;2022-10-14T07:54:02;13.88;;;4.38;;
56718;SDS011;42597;40.636;0.278;2022-10-14T07:56:30;8.88;;;4.55;;
56718;SDS011;42597;40.636;0.278;2022-10-14T07:58:56;7.75;;;3.53;;
56718;SDS011;42597;40.636;0.278;2022-10-14T08:01:22;6.65;;;2.95;;
56718;SDS011;42597;40.636;0.278;2022-10-14T08:03:48;8.18;;;3.42;;
56718;SDS011;42597;40.636;0.278;2022-10-14T08:06:14;3.90;;;2.65;;
56718;SDS011;42597;40.636;0.278;2022-10-14T08:08:40;5.93;;;2.70;;
56718;SDS011;42597;40.636;0.278;2022-10-14T08:11:11;11.68;;;2.83;;
56718;SDS011;42597;40.636;0.278;2022-10-14T08:13:42;11.52;;;3.03;;
56718;SDS011;42597;40.636;0.278;2022-10-14T08:16:16;13.05;;;3.25;;
56718;SDS011;42597;40.636;0.278;2022-10-14T08:18:45;7.70;;;3.10;;
56718;SDS011;42597;40.636;0.278;2022-10-14T08:21:11;9.40;;;2.90;;
56718;SDS011;42597;40.636;0.278;2022-10-14T08:23:37;7.90;;;2.70;;
56718;SDS011;42597;40.636;0.278;2022-10-14T08:26:03;4.65;;;2.58;;
56718;SDS011;42597;40.636;0.278;2022-10-14T08:28:29;4.93;;;2.88;;
56718;SDS011;42597;40.636;0.278;2022-10-14T08:30:54;10.15;;;3.83;;
56718;SDS011;42597;40.636;0.278;2022-10-14T08:33:20;5.90;;;3.00;;
56718;SDS011;42597;40.636;0.278;2022-10-14T08:35:45;6.28;;;3.38;;
56718;SDS011;42597;40.636;0.278;2022-10-14T08:38:11;5.55;;;3.10;;
56718;SDS011;42597;40.636;0.278;2022-10-14T08:49:12;9.85;;;2.95;;
56718;SDS011;42597;40.636;0.278;2022-10-14T08:51:44;4.07;;;2.50;;
56718;SDS011;42597;40.636;0.278;2022-10-14T08:54:18;6.40;;;3.03;;
56718;SDS011;42597;40.636;0.278;2022-10-14T08:56:54;5.40;;;2.88;;
56718;SDS011;42597;40.636;0.278;2022-10-14T08:59:21;8.48;;;3.10;;
56718;SDS011;42597;40.636;0.278;2022-10-14T09:01:50;5.05;;;2.63;;
56718;SDS011;42597;40.636;0.278;2022-10-14T09:04:18;5.30;;;2.55;;
56718;SDS011;42597;40.636;0.278;2022-10-14T09:06:45;6.43;;;2.33;;
56718;SDS011;42597;40.636;0.278;2022-10-14T09:11:43;6.43;;;2.83;;
56718;SDS011;42597;40.636;0.278;2022-10-14T09:14:21;8.52;;;2.38;;
56718;SDS011;42597;40.636;0.278;2022-10-14T09:16:50;6.05;;;2.55;;
56718;SDS011;42597;40.636;0.278;2022-10-14T09:19:30;7.47;;;3.00;;
56718;SDS011;42597;40.636;0.278;2022-10-14T09:21:59;5.93;;;2.90;;
56718;SDS011;42597;40.636;0.278;2022-10-14T09:24:32;3.65;;;1.92;;
56718;SDS011;42597;40.636;0.278;2022-10-14T09:27:04;6.20;;;2.03;;
56718;SDS011;42597;40.636;0.278;2022-10-14T09:29:32;6.75;;;2.33;;
56718;SDS011;42597;40.636;0.278;2022-10-14T09:32:03;6.28;;;2.22;;
56718;SDS011;42597;40.636;0.278;2022-10-14T09:34:33;5.05;;;2.45;;
56718;SDS011;42597;40.636;0.278;2022-10-14T09:37:04;5.90;;;2.50;;
56718;SDS011;42597;40.636;0.278;2022-10-14T09:39:50;4.63;;;1.55;;
56718;SDS011;42597;40.636;0.278;2022-10-14T09:42:27;4.35;;;1.83;;
56718;SDS011;42597;40.636;0.278;2022-10-14T09:45:10;3.42;;;2.10;;
56718;SDS011;42597;40.636;0.278;2022-10-14T09:50:34;4.60;;;2.10;;
56718;SDS011;42597;40.636;0.278;2022-10-14T09:53:18;6.28;;;2.25;;
56718;SDS011;42597;40.636;0.278;2022-10-14T09:55:51;4.10;;;2.15;;
56718;SDS011;42597;40.636;0.278;2022-10-14T09:58:29;4.57;;;2.00;;
56718;SDS011;42597;40.636;0.278;2022-10-14T10:00:59;4.78;;;2.40;;
56718;SDS011;42597;40.636;0.278;2022-10-14T10:03:30;5.20;;;2.35;;
56718;SDS011;42597;40.636;0.278;2022-10-14T10:05:59;4.55;;;2.22;;
56718;SDS011;42597;40.636;0.278;2022-10-14T10:08:25;3.20;;;2.08;;
56718;SDS011;42597;40.636;0.278;2022-10-14T10:10:58;4.53;;;1.88;;
56718;SDS011;42597;40.636;0.278;2022-10-14T10:13:33;5.00;;;2.25;;
56718;SDS011;42597;40.636;0.278;2022-10-14T10:16:31;7.28;;;2.22;;
56718;SDS011;42597;40.636;0.278;2022-10-14T10:18:56;6.85;;;2.45;;
56718;SDS011;42597;40.636;0.278;2022-10-14T10:21:42;6.10;;;2.40;;
56718;SDS011;42597;40.636;0.278;2022-10-14T10:24:11;3.92;;;1.98;;
56718;SDS011;42597;40.636;0.278;2022-10-14T10:26:44;5.55;;;2.92;;
56718;SDS011;42597;40.636;0.278;2022-10-14T10:29:21;5.35;;;2.42;;
56718;SDS011;42597;40.636;0.278;2022-10-14T10:32:04;7.15;;;2.15;;
56718;SDS011;42597;40.636;0.278;2022-10-14T10:42:32;3.45;;;1.70;;
56718;SDS011;42597;40.636;0.278;2022-10-14T10:48:14;5.22;;;2.55;;
56718;SDS011;42597;40.636;0.278;2022-10-14T10:50:44;7.40;;;2.40;;
56718;SDS011;42597;40.636;0.278;2022-10-14T11:01:32;4.28;;;2.20;;
56718;SDS011;42597;40.636;0.278;2022-10-14T11:06:46;7.28;;;2.78;;
56718;SDS011;42597;40.636;0.278;2022-10-14T11:13:12;16.08;;;2.60;;
56718;SDS011;42597;40.636;0.278;2022-10-14T11:15:56;4.43;;;2.13;;
56718;SDS011;42597;40.636;0.278;2022-10-14T11:26:48;3.22;;;2.10;;
56718;SDS011;42597;40.636;0.278;2022-10-14T11:45:55;6.82;;;2.25;;
56718;SDS011;42597;40.636;0.278;2022-10-14T11:51:33;7.32;;;1.73;;
56718;SDS011;42597;40.636;0.278;2022-10-14T11:54:04;2.80;;;1.50;;
56718;SDS011;42597;40.636;0.278;2022-10-14T11:56:46;4.43;;;1.92;;
56718;SDS011;42597;40.636;0.278;2022-10-14T12:02:19;5.70;;;2.58;;
56718;SDS011;42597;40.636;0.278;2022-10-14T12:05:14;4.70;;;1.92;;
56718;SDS011;42597;40.636;0.278;2022-10-14T12:07:58;3.33;;;2.08;;
56718;SDS011;42597;40.636;0.278;2022-10-14T12:10:37;3.70;;;1.98;;
56718;SDS011;42597;40.636;0.278;2022-10-14T12:13:11;4.25;;;2.30;;
56718;SDS011;42597;40.636;0.278;2022-10-14T12:15:40;4.05;;;1.95;;
56718;SDS011;42597;40.636;0.278;2022-10-14T12:18:11;4.75;;;2.00;;
56718;SDS011;42597;40.636;0.278;2022-10-14T12:23:38;4.38;;;1.77;;
56718;SDS011;42597;40.636;0.278;2022-10-14T12:28:49;5.78;;;2.17;;
56718;SDS011;42597;40.636;0.278;2022-10-14T12:36:43;6.57;;;2.40;;
56718;SDS011;42597;40.636;0.278;2022-10-14T12:41:52;3.13;;;1.58;;
56718;SDS011;42597;40.636;0.278;2022-10-14T12:44:26;4.93;;;1.73;;
56718;SDS011;42597;40.636;0.278;2022-10-14T12:47:06;4.60;;;2.20;;
56718;SDS011;42597;40.636;0.278;2022-10-14T12:49:45;5.72;;;1.83;;
56718;SDS011;42597;40.636;0.278;2022-10-14T12:52:13;2.92;;;1.42;;
56718;SDS011;42597;40.636;0.278;2022-10-14T12:54:53;3.55;;;1.90;;
56718;SDS011;42597;40.636;0.278;2022-10-14T12:59:59;3.38;;;1.75;;
56718;SDS011;42597;40.636;0.278;2022-10-14T13:02:35;4.72;;;1.75;;
56718;SDS011;42597;40.636;0.278;2022-10-14T13:05:07;3.55;;;1.67;;
56718;SDS011;42597;40.636;0.278;2022-10-14T13:07:47;3.50;;;1.85;;
56718;SDS011;42597;40.636;0.278;2022-10-14T13:18:56;6.10;;;3.15;;
56718;SDS011;42597;40.636;0.278;2022-10-14T13:24:16;6.70;;;3.27;;
56718;SDS011;42597;40.636;0.278;2022-10-14T13:40:05;8.45;;;3.38;;
56718;SDS011;42597;40.636;0.278;2022-10-14T13:42:33;7.40;;;3.50;;
56718;SDS011;42597;40.636;0.278;2022-10-14T13:45:05;9.13;;;3.20;;
56718;SDS011;42597;40.636;0.278;2022-10-14T13:47:35;8.38;;;3.00;;
56718;SDS011;42597;40.636;0.278;2022-10-14T13:50:07;4.65;;;2.63;;
56718;SDS011;42597;40.636;0.278;2022-10-14T13:52:37;4.75;;;2.80;;
56718;SDS011;42597;40.636;0.278;2022-10-14T13:55:14;6.88;;;2.83;;
56718;SDS011;42597;40.636;0.278;2022-10-14T13:57:41;8.70;;;3.67;;
56718;SDS011;42597;40.636;0.278;2022-10-14T14:03:00;4.90;;;2.58;;
56718;SDS011;42597;40.636;0.278;2022-10-14T14:05:31;8.25;;;3.10;;
56718;SDS011;42597;40.636;0.278;2022-10-14T14:07:59;9.27;;;2.67;;
56718;SDS011;42597;40.636;0.278;2022-10-14T14:10:27;4.78;;;2.53;;
56718;SDS011;42597;40.636;0.278;2022-10-14T14:12:53;6.72;;;3.00;;
56718;SDS011;42597;40.636;0.278;2022-10-14T14:15:26;3.67;;;1.98;;
56718;SDS011;42597;40.636;0.278;2022-10-14T14:17:53;8.90;;;3.53;;
56718;SDS011;42597;40.636;0.278;2022-10-14T14:20:23;5.47;;;2.80;;
56718;SDS011;42597;40.636;0.278;2022-10-14T14:22:52;4.90;;;2.70;;
56718;SDS011;42597;40.636;0.278;2022-10-14T14:25:24;9.50;;;3.08;;
56718;SDS011;42597;40.636;0.278;2022-10-14T14:27:56;6.80;;;3.13;;
56718;SDS011;42597;40.636;0.278;2022-10-14T14:30:31;8.00;;;3.63;;
56718;SDS011;42597;40.636;0.278;2022-10-14T14:33:03;6.97;;;2.92;;
56718;SDS011;42597;40.636;0.278;2022-10-14T14:35:35;5.22;;;2.72;;
56718;SDS011;42597;40.636;0.278;2022-10-14T14:38:00;8.48;;;3.20;;
56718;SDS011;42597;40.636;0.278;2022-10-14T14:40:27;6.43;;;2.88;;
56718;SDS011;42597;40.636;0.278;2022-10-14T14:42:57;6.63;;;2.83;;
56718;SDS011;42597;40.636;0.278;2022-10-14T14:45:26;4.40;;;2.85;;
56718;SDS011;42597;40.636;0.278;2022-10-14T14:47:57;13.65;;;3.67;;
56718;SDS011;42597;40.636;0.278;2022-10-14T14:50:27;6.05;;;3.35;;
56718;SDS011;42597;40.636;0.278;2022-10-14T14:53:01;6.93;;;2.45;;
56718;SDS011;42597;40.636;0.278;2022-10-14T14:55:35;6.63;;;3.28;;
56718;SDS011;42597;40.636;0.278;2022-10-14T14:58:31;8.73;;;3.15;;
56718;SDS011;42597;40.636;0.278;2022-10-14T15:00:55;4.43;;;2.53;;
56718;SDS011;42597;40.636;0.278;2022-10-14T15:03:25;7.05;;;2.42;;
56718;SDS011;42597;40.636;0.278;2022-10-14T15:05:58;5.72;;;3.17;;
56718;SDS011;42597;40.636;0.278;2022-10-14T15:08:27;5.15;;;3.30;;
56718;SDS011;42597;40.636;0.278;2022-10-14T15:10:57;7.70;;;4.85;;
56718;SDS011;42597;40.636;0.278;2022-10-14T15:14:23;5.45;;;3.00;;
56718;SDS011;42597;40.636;0.278;2022-10-14T15:16:38;6.35;;;2.60;;
56718;SDS011;42597;40.636;0.278;2022-10-14T15:21:44;7.82;;;3.28;;
56718;SDS011;42597;40.636;0.278;2022-10-14T15:24:13;4.57;;;2.65;;
56718;SDS011;42597;40.636;0.278;2022-10-14T15:26:40;7.55;;;3.28;;
56718;SDS011;42597;40.636;0.278;2022-10-14T15:29:19;9.27;;;3.63;;
56718;SDS011;42597;40.636;0.278;2022-10-14T15:31:46;6.00;;;3.45;;
56718;SDS011;42597;40.636;0.278;2022-10-14T15:34:27;9.52;;;4.63;;
56718;SDS011;42597;40.636;0.278;2022-10-14T15:36:53;7.88;;;3.00;;
56718;SDS011;42597;40.636;0.278;2022-10-14T15:39:19;8.88;;;3.50;;
56718;SDS011;42597;40.636;0.278;2022-10-14T15:41:45;11.68;;;4.00;;
56718;SDS011;42597;40.636;0.278;2022-10-14T15:44:11;8.15;;;3.60;;
56718;SDS011;42597;40.636;0.278;2022-10-14T15:46:37;7.45;;;3.65;;
56718;SDS011;42597;40.636;0.278;2022-10-14T15:49:25;7.95;;;3.72;;
56718;SDS011;42597;40.636;0.278;2022-10-14T15:51:54;6.00;;;3.67;;
56718;SDS011;42597;40.636;0.278;2022-10-14T15:54:20;7.88;;;3.75;;
56718;SDS011;42597;40.636;0.278;2022-10-14T15:56:45;7.00;;;3.65;;
56718;SDS011;42597;40.636;0.278;2022-10-14T15:59:12;7.28;;;4.00;;
56718;SDS011;42597;40.636;0.278;2022-10-14T16:01:40;6.15;;;3.58;;
56718;SDS011;42597;40.636;0.278;2022-10-14T16:04:13;10.70;;;4.05;;
56718;SDS011;42597;40.636;0.278;2022-10-14T16:06:42;6.88;;;3.30;;
56718;SDS011;42597;40.636;0.278;2022-10-14T16:09:07;8.43;;;3.42;;
56718;SDS011;42597;40.636;0.278;2022-10-14T16:11:33;7.03;;;3.03;;
56718;SDS011;42597;40.636;0.278;2022-10-14T16:13:59;6.03;;;2.72;;
56718;SDS011;42597;40.636;0.278;2022-10-14T16:16:26;5.65;;;3.17;;
56718;SDS011;42597;40.636;0.278;2022-10-14T16:18:56;7.40;;;3.33;;
56718;SDS011;42597;40.636;0.278;2022-10-14T16:21:22;10.75;;;3.42;;
56718;SDS011;42597;40.636;0.278;2022-10-14T16:23:47;7.47;;;3.65;;
56718;SDS011;42597;40.636;0.278;2022-10-14T16:26:13;8.45;;;3.55;;
56718;SDS011;42597;40.636;0.278;2022-10-14T16:28:39;5.60;;;3.33;;
56718;SDS011;42597;40.636;0.278;2022-10-14T16:31:04;10.35;;;3.30;;
56718;SDS011;42597;40.636;0.278;2022-10-14T16:33:30;7.50;;;3.30;;
56718;SDS011;42597;40.636;0.278;2022-10-14T16:35:56;4.85;;;2.97;;
56718;SDS011;42597;40.636;0.278;2022-10-14T16:38:24;5.10;;;2.67;;
56718;SDS011;42597;40.636;0.278;2022-10-14T16:40:57;6.18;;;3.00;;
56718;SDS011;42597;40.636;0.278;2022-10-14T16:43:26;6.75;;;3.97;;
56718;SDS011;42597;40.636;0.278;2022-10-14T16:45:56;6.63;;;3.13;;
56718;SDS011;42597;40.636;0.278;2022-10-14T16:48:22;6.40;;;3.28;;
56718;SDS011;42597;40.636;0.278;2022-10-14T16:50:48;4.43;;;2.70;;
56718;SDS011;42597;40.636;0.278;2022-10-14T16:53:14;4.93;;;2.90;;
56718;SDS011;42597;40.636;0.278;2022-10-14T16:56:03;6.65;;;2.85;;
56718;SDS011;42597;40.636;0.278;2022-10-14T16:58:50;4.30;;;2.25;;
56718;SDS011;42597;40.636;0.278;2022-10-14T17:01:15;5.30;;;3.05;;
56718;SDS011;42597;40.636;0.278;2022-10-14T17:03:41;6.82;;;3.13;;
56718;SDS011;42597;40.636;0.278;2022-10-14T17:06:06;9.30;;;3.83;;
56718;SDS011;42597;40.636;0.278;2022-10-14T17:08:32;6.32;;;3.10;;
56718;SDS011;42597;40.636;0.278;2022-10-14T17:10:57;5.35;;;3.15;;
56718;SDS011;42597;40.636;0.278;2022-10-14T17:13:23;6.80;;;3.33;;
56718;SDS011;42597;40.636;0.278;2022-10-14T17:15:48;5.22;;;2.60;;
56718;SDS011;42597;40.636;0.278;2022-10-14T17:18:15;8.10;;;3.63;;
56718;SDS011;42597;40.636;0.278;2022-10-14T17:20:41;4.93;;;2.80;;
56718;SDS011;42597;40.636;0.278;2022-10-14T17:23:07;9.15;;;3.35;;
56718;SDS011;42597;40.636;0.278;2022-10-14T17:25:33;5.97;;;2.85;;
56718;SDS011;42597;40.636;0.278;2022-10-14T17:28:00;4.90;;;2.97;;
56718;SDS011;42597;40.636;0.278;2022-10-14T17:30:26;5.20;;;3.25;;
56718;SDS011;42597;40.636;0.278;2022-10-14T17:32:51;7.57;;;2.70;;
56718;SDS011;42597;40.636;0.278;2022-10-14T17:35:17;4.90;;;2.65;;
56718;SDS011;42597;40.636;0.278;2022-10-14T17:37:42;4.50;;;2.78;;